Four Buttes, Montana
Current Conditions -  °F | °C
As of 7:53 PM on Wednesday 22 Oct 2014 (Local Time) from KOLF Reporting Station
Clear Clear  
Wind Chill: 45°   Ceiling: Unl
Heat Index: 45°   Visibility: 10mi
Dew Point: 33°   Wind: 0mph
Humidity: 63%   Direction: NA
Pressure: 29.89"   Gusts: NA
Location:  48.7328°N, 105.394°W
Report Text: KOLF 230153Z AUTO 00000KT 10SM CLR 07/01 A2989 RMK AO2 SLP130 T00720006
Loading
Personal Weather Stations






























Interactive Weather Map
Tropical Storm Tracking
New forecast layout! Learn more

10-Day Weather Forecast

Advertisements
Track Severe Weather on mobile